Time;durP1;ratioP1;P1;durP2;ratioP2;P2;SDS_P1;SDS_P2;PMS_P1;PMS_P2;Temp;Humidity;BMP_temperature;BMP_pressure;BME280_temperature;BME280_humidity;BME280_pressure;Samples;Min_cycle;Max_cycle;Signal;HPM_P1;HPM_P2
2023/01/28 00:00:48;;;;;;;1.45;0.40;;;;;;;-1.94;71.53;102352.09;4942792;28;20050;-72
2023/01/28 00:03:15;;;;;;;0.52;0.20;;;;;;;-1.93;71.76;102356.44;4943407;28;20047;-72
2023/01/28 00:05:42;;;;;;;1.00;0.30;;;;;;;-1.94;72.03;102362.34;4946134;28;20059;-72
2023/01/28 00:08:10;;;;;;;1.33;0.30;;;;;;;-1.92;71.62;102354.75;4942229;28;20392;-72
2023/01/28 00:10:38;;;;;;;1.17;0.30;;;;;;;-1.92;72.03;102350.53;4945873;28;20050;-72
2023/01/28 00:13:06;;;;;;;1.23;0.30;;;;;;;-1.90;71.66;102345.50;4942693;28;20066;-72
2023/01/28 00:15:33;;;;;;;1.75;0.28;;;;;;;-1.90;71.70;102342.94;4945621;28;20058;-72
2023/01/28 00:18:00;;;;;;;3.40;0.38;;;;;;;-1.98;71.68;102323.69;4946407;28;20051;-72
2023/01/28 00:20:27;;;;;;;0.80;0.30;;;;;;;-1.89;71.98;102335.31;4945168;28;20039;-73
2023/01/28 00:22:54;;;;;;;0.95;0.20;;;;;;;-1.88;71.51;102336.19;4944874;28;20047;-72
2023/01/28 00:25:21;;;;;;;2.17;0.20;;;;;;;-1.88;71.90;102336.19;4941202;28;20051;-73
2023/01/28 00:27:49;;;;;;;1.00;0.28;;;;;;;-1.88;72.08;102332.00;4944757;28;20057;-72
2023/01/28 00:30:19;;;;;;;2.83;0.40;;;;;;;-1.87;71.87;102338.00;4940069;28;20055;-72
2023/01/28 00:32:46;;;;;;;2.10;0.20;;;;;;;-1.89;71.52;102324.19;4943989;28;20145;-72
2023/01/28 00:35:13;;;;;;;0.47;0.20;;;;;;;-1.87;71.55;102317.50;4942357;29;20047;-73
2023/01/28 00:37:40;;;;;;;2.83;0.40;;;;;;;-1.87;71.81;102313.25;4945337;28;20051;-72
2023/01/28 00:40:09;;;;;;;0.93;0.30;;;;;;;-1.85;72.06;102310.75;4943859;28;20058;-72
2023/01/28 00:42:36;;;;;;;1.00;0.20;;;;;;;-1.85;71.89;102313.31;4942021;28;20048;-73
2023/01/28 00:45:03;;;;;;;0.45;0.20;;;;;;;-1.90;71.52;102290.03;4940789;28;21654;-73
2023/01/28 00:47:31;;;;;;;0.77;0.40;;;;;;;-1.85;71.75;102292.84;4943081;29;20048;-73
2023/01/28 00:49:58;;;;;;;0.43;0.20;;;;;;;-1.83;72.03;102296.38;4941742;28;20047;-72
2023/01/28 00:52:26;;;;;;;2.10;0.20;;;;;;;-1.86;71.63;102289.41;4940255;28;20514;-72
2023/01/28 00:54:53;;;;;;;2.45;0.20;;;;;;;-1.85;71.81;102287.72;4940231;29;20132;-73
2023/01/28 00:57:20;;;;;;;2.60;0.30;;;;;;;-1.83;72.02;102283.56;4945087;28;20044;-72
2023/01/28 00:59:47;;;;;;;0.47;0.13;;;;;;;-1.83;71.89;102279.31;4940620;28;20488;-72
2023/01/28 01:02:14;;;;;;;0.65;0.30;;;;;;;-1.82;71.94;102275.09;4942767;28;20057;-73
2023/01/28 01:04:53;;;;;;;0.30;0.20;;;;;;;-1.81;72.18;102277.72;4942641;28;20062;-73
2023/01/28 01:07:22;;;;;;;0.80;0.28;;;;;;;-1.79;71.63;102266.69;4940521;28;20465;-72
2023/01/28 01:09:49;;;;;;;2.97;0.30;;;;;;;-1.79;71.67;102264.13;4941504;28;20055;-73
2023/01/28 01:12:16;;;;;;;1.05;0.30;;;;;;;-1.80;72.09;102273.50;4939420;28;20409;-72
2023/01/28 01:14:43;;;;;;;1.45;0.30;;;;;;;-1.79;71.79;102265.03;4943908;28;21942;-72
2023/01/28 01:17:10;;;;;;;2.65;0.30;;;;;;;-1.79;72.02;102259.00;4941217;28;20432;-72
2023/01/28 01:19:37;;;;;;;2.80;0.40;;;;;;;-1.80;71.82;102247.88;4942013;28;20047;-72
2023/01/28 01:22:05;;;;;;;0.57;0.20;;;;;;;-1.87;72.04;102232.97;4938876;28;20055;-72
2023/01/28 01:24:32;;;;;;;2.60;0.20;;;;;;;-1.80;71.90;102242.75;4942024;28;20047;-73
2023/01/28 01:26:59;;;;;;;2.78;0.20;;;;;;;-1.79;71.81;102243.63;4941260;29;20408;-72
2023/01/28 01:29:26;;;;;;;0.65;0.20;;;;;;;-1.79;71.96;102233.38;4943363;28;20043;-72
2023/01/28 01:31:54;;;;;;;1.15;0.30;;;;;;;-1.79;72.10;102233.38;4934205;28;20131;-72
2023/01/28 01:34:21;;;;;;;1.80;0.20;;;;;;;-1.80;71.59;102235.06;4940809;28;20050;-72
2023/01/28 01:36:48;;;;;;;0.95;0.20;;;;;;;-1.80;71.88;102217.13;4941101;28;20055;-72
2023/01/28 01:39:16;;;;;;;2.00;0.40;;;;;;;-1.79;71.66;102218.00;4939992;28;20407;-72
2023/01/28 01:41:43;;;;;;;0.28;0.20;;;;;;;-1.80;71.77;102209.44;4940283;28;20048;-72
2023/01/28 01:44:43;;;;;;;2.20;0.30;;;;;;;-1.81;71.93;102200.88;4939972;28;20135;-73
2023/01/28 01:47:10;;;;;;;0.57;0.20;;;;;;;-1.79;71.80;102206.13;4943543;28;20047;-72
2023/01/28 01:49:37;;;;;;;0.60;0.10;;;;;;;-1.85;71.88;102192.94;4944297;28;20411;-72
2023/01/28 01:52:09;;;;;;;0.93;0.25;;;;;;;-1.79;71.87;102197.53;4939492;28;20054;-72
2023/01/28 01:54:39;;;;;;;1.05;0.20;;;;;;;-1.82;71.89;102188.00;4941078;28;20044;-72
2023/01/28 01:57:10;;;;;;;0.98;0.13;;;;;;;-1.79;71.55;102188.19;4937388;28;20047;-72
2023/01/28 01:59:37;;;;;;;0.70;0.20;;;;;;;-1.79;71.71;102183.06;4940266;28;20056;-73
2023/01/28 02:02:07;;;;;;;0.38;0.10;;;;;;;-1.79;71.99;102177.03;4942113;28;20051;-72
2023/01/28 02:04:39;;;;;;;0.52;0.20;;;;;;;-1.78;71.83;102177.13;4940747;28;20051;-72
2023/01/28 02:07:08;;;;;;;0.32;0.20;;;;;;;-1.79;71.28;102172.81;4936799;28;20053;-73
2023/01/28 02:09:37;;;;;;;0.93;0.17;;;;;;;-1.78;71.42;102172.00;4940055;28;20476;-72
2023/01/28 02:12:09;;;;;;;0.32;0.17;;;;;;;-1.79;71.29;102167.69;4937317;28;20495;-72
2023/01/28 02:14:41;;;;;;;0.30;0.10;;;;;;;-1.78;71.29;102159.19;4942059;28;20059;-72
2023/01/28 02:17:09;;;;;;;0.22;0.10;;;;;;;-1.78;71.93;102148.94;4940573;28;20050;-72
2023/01/28 02:19:40;;;;;;;1.25;0.10;;;;;;;-1.77;71.42;102147.25;4941046;28;20051;-72
2023/01/28 02:22:29;;;;;;;0.10;0.10;;;;;;;-1.77;71.76;102145.56;4939397;29;20062;-73
2023/01/28 02:25:34;;;;;;;0.95;0.10;;;;;;;-1.78;71.58;102138.69;4940238;29;20055;-72
2023/01/28 02:28:19;;;;;;;0.57;0.17;;;;;;;-1.79;71.30;102129.28;4922538;28;20050;-74
2023/01/28 02:30:52;;;;;;;1.58;0.20;;;;;;;-1.79;71.29;102121.59;4935545;28;20428;-72
2023/01/28 02:33:29;;;;;;;1.50;0.10;;;;;;;-1.79;71.72;102121.59;4936688;28;20047;-72
2023/01/28 02:35:56;;;;;;;0.30;0.10;;;;;;;-1.79;71.21;102111.34;4939234;29;20457;-74
2023/01/28 02:38:29;;;;;;;0.20;0.10;;;;;;;-1.85;71.64;102103.31;4944689;28;20059;-72
2023/01/28 02:41:05;;;;;;;1.33;0.10;;;;;;;-1.80;70.66;102112.13;4939666;28;20044;-72
2023/01/28 02:43:36;;;;;;;0.30;0.10;;;;;;;-1.79;71.55;102103.66;4939241;28;20504;-72
2023/01/28 02:48:58;;;;;;;0.55;0.10;;;;;;;-1.80;71.45;102094.19;4942115;28;20058;-72
2023/01/28 02:51:51;;;;;;;0.25;0.10;;;;;;;-1.81;71.46;102088.19;4941405;28;20054;-72
2023/01/28 02:54:26;;;;;;;1.27;0.10;;;;;;;-1.81;71.53;102083.06;4941912;28;20048;-72
2023/01/28 02:57:00;;;;;;;0.50;0.10;;;;;;;-1.80;71.14;102091.63;4936142;28;20055;-73
2023/01/28 02:59:36;;;;;;;0.68;0.10;;;;;;;-1.81;71.27;102083.06;4941792;29;20054;-72
2023/01/28 03:02:11;;;;;;;0.30;0.10;;;;;;;-1.81;71.57;102077.06;4941828;28;20175;-73
2023/01/28 03:04:45;;;;;;;0.40;0.10;;;;;;;-1.79;71.62;102079.69;4935526;28;20043;-72
2023/01/28 03:07:14;;;;;;;3.28;0.90;;;;;;;-2.00;71.15;102043.59;4945511;29;20415;-73
2023/01/28 03:09:44;;;;;;;0.20;0.10;;;;;;;-1.80;71.32;102083.94;4947225;28;20044;-72
2023/01/28 03:37:31;;;;;;;0.10;0.03;;;;;;;-1.88;70.94;102027.22;4945313;29;20050;-74
2023/01/28 03:40:03;;;;;;;0.88;0.10;;;;;;;-1.86;71.42;102017.91;4944932;28;20047;-76
2023/01/28 03:42:31;;;;;;;0.30;0.10;;;;;;;-1.78;71.14;102027.69;4948412;28;20079;-76
2023/01/28 03:45:00;;;;;;;1.33;0.10;;;;;;;-1.77;71.41;102020.06;4941271;28;20066;-75
2023/01/28 03:47:30;;;;;;;0.13;0.10;;;;;;;-1.76;71.09;102019.28;4944718;28;20564;-76
2023/01/28 03:49:59;;;;;;;0.70;0.10;;;;;;;-1.76;71.39;102015.84;4942480;29;20405;-76
2023/01/28 03:52:30;;;;;;;0.17;0.10;;;;;;;-1.78;71.26;102002.94;4940838;28;20055;-76
2023/01/28 03:54:57;;;;;;;1.48;0.10;;;;;;;-1.76;71.23;102014.16;4942093;28;20463;-76
2023/01/28 03:57:27;;;;;;;0.85;0.20;;;;;;;-1.74;71.40;102014.22;4944332;28;20054;-75
2023/01/28 03:59:54;;;;;;;0.10;0.05;;;;;;;-1.86;70.92;101981.19;4943933;28;20052;-76
2023/01/28 04:02:24;;;;;;;0.30;0.10;;;;;;;-1.74;71.34;101999.72;4945292;28;20047;-76
2023/01/28 04:04:52;;;;;;;1.13;0.10;;;;;;;-1.84;71.48;101977.91;4946192;28;20489;-76
2023/01/28 04:07:19;;;;;;;0.17;0.10;;;;;;;-1.71;70.85;101987.06;4940908;28;20051;-76
2023/01/28 04:09:46;;;;;;;2.72;0.10;;;;;;;-1.71;71.63;101976.81;4944385;28;20043;-75
2023/01/28 04:12:13;;;;;;;3.65;0.20;;;;;;;-1.82;71.09;101947.25;4940878;28;20055;-76
2023/01/28 04:14:40;;;;;;;1.48;0.10;;;;;;;-1.75;71.14;101953.56;4946548;28;20058;-76
2023/01/28 04:17:09;;;;;;;0.50;0.17;;;;;;;-1.67;71.33;101959.94;4943412;28;20393;-76
2023/01/28 04:19:37;;;;;;;0.10;0.10;;;;;;;-1.80;71.16;101935.38;4942890;28;20134;-76
2023/01/28 04:22:11;;;;;;;0.90;0.20;;;;;;;-1.69;70.97;101941.06;4947321;28;20469;-76
2023/01/28 04:24:38;;;;;;;0.35;0.10;;;;;;;-1.67;71.35;101942.91;4946747;28;20054;-76
2023/01/28 04:27:04;;;;;;;0.20;0.10;;;;;;;-1.62;71.42;101940.56;4946095;28;20103;-78
2023/01/28 04:29:31;;;;;;;2.08;0.20;;;;;;;-1.67;71.39;101935.22;4948176;28;20044;-75
2023/01/28 04:31:58;;;;;;;0.43;0.10;;;;;;;-1.62;71.53;101941.44;4942065;29;20580;-76
2023/01/28 04:34:25;;;;;;;0.55;0.20;;;;;;;-1.61;71.16;101935.50;4943999;28;20047;-76
2023/01/28 04:36:52;;;;;;;3.13;0.10;;;;;;;-1.67;71.50;101922.41;4945896;28;20073;-76
2023/01/28 04:39:20;;;;;;;0.52;0.10;;;;;;;-1.68;71.60;101910.41;4942483;28;20053;-76
2023/01/28 04:41:47;;;;;;;4.25;0.20;;;;;;;-1.58;71.49;101922.84;4942037;28;20052;-76
2023/01/28 04:44:16;;;;;;;0.30;0.10;;;;;;;-1.60;71.57;101914.19;4942126;28;20054;-76
2023/01/28 04:46:42;;;;;;;0.40;0.10;;;;;;;-1.64;71.52;101904.63;4941930;28;20067;-75
2023/01/28 04:49:09;;;;;;;0.55;0.15;;;;;;;-1.55;71.08;101904.19;4946569;28;20047;-76
2023/01/28 04:51:36;;;;;;;0.32;0.10;;;;;;;-1.53;71.02;101894.03;4945421;28;20062;-76
2023/01/28 04:54:03;;;;;;;0.20;0.10;;;;;;;-1.53;71.60;101894.03;4941971;29;20052;-72
2023/01/28 04:56:31;;;;;;;0.73;0.10;;;;;;;-1.51;71.25;101900.06;4940496;28;20047;-72
2023/01/28 04:58:58;;;;;;;0.30;0.10;;;;;;;-1.51;72.13;101903.50;4943561;28;20071;-72
2023/01/28 05:01:25;;;;;;;2.28;0.10;;;;;;;-1.50;71.77;101899.28;4943190;28;20047;-72
2023/01/28 05:03:52;;;;;;;0.60;0.10;;;;;;;-1.49;71.62;101883.97;4941454;28;20058;-72
2023/01/28 05:06:19;;;;;;;0.70;0.10;;;;;;;-1.48;71.74;101879.72;4944421;28;20511;-72
2023/01/28 05:08:46;;;;;;;0.10;0.10;;;;;;;-1.61;71.28;101850.97;4937791;28;20059;-73
2023/01/28 05:11:13;;;;;;;0.10;0.10;;;;;;;-1.43;71.60;101873.13;4940969;28;20052;-73
2023/01/28 05:13:42;;;;;;;1.60;0.20;;;;;;;-1.42;71.74;101869.78;4947067;28;20054;-72
2023/01/28 05:16:09;;;;;;;0.10;0.10;;;;;;;-1.41;71.62;101867.28;4941495;28;20543;-72
2023/01/28 05:18:35;;;;;;;0.10;0.10;;;;;;;-1.39;71.53;101857.13;4940467;28;20137;-72
2023/01/28 05:21:03;;;;;;;2.85;0.10;;;;;;;-1.37;71.96;101858.97;4940381;28;20051;-73
2023/01/28 05:23:30;;;;;;;0.10;0.10;;;;;;;-1.36;71.34;101855.56;4943017;28;20047;-72
2023/01/28 05:25:57;;;;;;;1.45;0.17;;;;;;;-1.32;71.29;101848.91;4942094;28;20044;-73
2023/01/28 05:28:24;;;;;;;0.52;0.20;;;;;;;-1.30;71.99;101847.28;4941271;28;20059;-72
2023/01/28 05:30:52;;;;;;;0.10;0.03;;;;;;;-1.28;71.92;101830.31;4942396;28;20143;-73
2023/01/28 05:33:19;;;;;;;0.10;0.10;;;;;;;-1.26;72.04;101823.56;4944741;28;20047;-72
2023/01/28 05:35:46;;;;;;;0.63;0.10;;;;;;;-1.24;71.88;101815.94;4941683;28;20039;-72
2023/01/28 05:38:13;;;;;;;0.70;0.20;;;;;;;-1.21;71.45;101816.94;4943785;29;20154;-72
2023/01/28 05:40:39;;;;;;;0.05;0.05;;;;;;;-1.18;71.70;101814.53;4940303;28;20052;-73
2023/01/28 05:43:06;;;;;;;0.22;0.10;;;;;;;-1.16;71.89;101815.50;4940740;28;20412;-73
2023/01/28 05:45:33;;;;;;;0.10;0.10;;;;;;;-1.14;71.78;101823.22;4936745;28;20052;-73
2023/01/28 05:48:02;;;;;;;1.70;0.15;;;;;;;-1.11;71.34;101817.38;4943331;28;20078;-72
2023/01/28 05:50:28;;;;;;;0.17;0.10;;;;;;;-1.09;72.03;101810.63;4939163;28;20049;-73
2023/01/28 05:52:55;;;;;;;0.17;0.08;;;;;;;-1.06;72.22;101810.78;4939421;28;20047;-73
2023/01/28 05:55:22;;;;;;;1.55;0.10;;;;;;;-1.08;71.67;101797.00;4940392;28;20047;-73
2023/01/28 05:57:49;;;;;;;1.00;0.10;;;;;;;-1.02;72.13;101807.56;4941598;28;20053;-73
2023/01/28 06:00:17;;;;;;;0.10;0.10;;;;;;;-1.03;72.10;101795.53;4936228;28;20051;-73
2023/01/28 06:02:44;;;;;;;6.13;0.30;;;;;;;-0.98;72.22;101784.66;4939624;28;20130;-73
2023/01/28 06:05:13;;;;;;;0.10;0.10;;;;;;;-0.94;71.56;101795.94;4943032;28;20043;-75
2023/01/28 06:07:40;;;;;;;0.10;0.05;;;;;;;-0.92;71.96;101790.06;4942908;28;20142;-74
2023/01/28 06:10:08;;;;;;;1.25;0.10;;;;;;;-0.92;72.08;101784.06;4935450;28;20051;-74
2023/01/28 06:12:34;;;;;;;1.60;0.10;;;;;;;-0.87;71.90;101777.44;4940036;28;20057;-75
2023/01/28 06:15:01;;;;;;;0.20;0.10;;;;;;;-0.86;71.94;101774.06;4943879;28;20069;-75
2023/01/28 06:17:28;;;;;;;2.30;0.10;;;;;;;-0.96;72.47;101746.28;4945493;28;20043;-76
2023/01/28 06:19:55;;;;;;;3.03;0.20;;;;;;;-0.86;72.32;101752.66;4939642;28;20061;-75
2023/01/28 06:22:24;;;;;;;0.20;0.20;;;;;;;-0.77;72.17;101774.50;4939534;28;20054;-75
2023/01/28 06:24:50;;;;;;;0.55;0.20;;;;;;;-0.74;71.97;101774.63;4937189;29;20832;-75
2023/01/28 06:27:18;;;;;;;1.73;0.10;;;;;;;-0.72;72.19;101780.66;4940747;28;20043;-74
2023/01/28 06:29:44;;;;;;;0.40;0.10;;;;;;;-0.70;72.17;101768.78;4944221;28;20051;-76
2023/01/28 06:32:11;;;;;;;1.33;0.20;;;;;;;-0.66;72.14;101771.50;4940403;28;20047;-75
2023/01/28 06:34:38;;;;;;;0.43;0.10;;;;;;;-0.65;72.19;101765.56;4940779;28;20066;-75
2023/01/28 06:37:05;;;;;;;1.60;0.20;;;;;;;-0.62;72.41;101758.00;4940899;28;20055;-75
2023/01/28 06:39:33;;;;;;;0.50;0.10;;;;;;;-0.59;72.10;101764.13;4940793;28;20047;-75
2023/01/28 06:42:00;;;;;;;0.73;0.10;;;;;;;-0.55;72.09;101757.44;4939977;29;20047;-76
2023/01/28 06:44:27;;;;;;;0.93;0.15;;;;;;;-0.54;72.88;101754.94;4941137;28;20048;-75
2023/01/28 06:46:54;;;;;;;1.25;0.10;;;;;;;-0.51;72.36;101757.63;4939392;29;20059;-75
2023/01/28 06:49:21;;;;;;;1.92;0.20;;;;;;;-0.49;73.00;101760.25;4940779;29;20054;-75
2023/01/28 06:51:48;;;;;;;0.68;0.10;;;;;;;-0.46;72.40;101756.16;4940758;29;20051;-75
2023/01/28 06:54:16;;;;;;;2.17;0.10;;;;;;;-0.43;72.04;101754.50;4942387;29;20048;-75
2023/01/28 06:56:44;;;;;;;0.57;0.40;;;;;;;-0.40;72.14;101749.50;4940207;29;20497;-74
2023/01/28 06:59:11;;;;;;;4.35;0.30;;;;;;;-0.38;72.48;101746.19;4941124;28;20511;-75
2023/01/28 07:01:38;;;;;;;3.83;0.20;;;;;;;-0.35;73.11;101738.59;4937099;29;20063;-75
2023/01/28 07:04:06;;;;;;;1.17;0.20;;;;;;;-0.33;72.65;101747.25;4939929;28;20523;-75
2023/01/28 07:06:33;;;;;;;1.23;0.20;;;;;;;-0.30;73.32;101749.06;4940562;28;20474;-75
2023/01/28 07:08:59;;;;;;;0.40;0.20;;;;;;;-0.28;72.96;101743.19;4943426;29;20052;-75
2023/01/28 07:11:26;;;;;;;2.70;0.20;;;;;;;-0.25;73.36;101735.63;4940788;28;20047;-76
2023/01/28 07:13:55;;;;;;;4.30;0.20;;;;;;;-0.21;72.98;101730.59;4942255;29;20047;-74
2023/01/28 07:16:22;;;;;;;4.82;0.10;;;;;;;-0.18;73.19;101736.72;4937211;28;20044;-73
2023/01/28 07:18:49;;;;;;;2.47;0.20;;;;;;;-0.14;72.93;101728.34;4940061;29;20048;-74
2023/01/28 07:21:16;;;;;;;0.40;0.25;;;;;;;-0.12;73.53;101725.84;4941933;28;20051;-74
2023/01/28 07:23:43;;;;;;;1.02;0.20;;;;;;;-0.08;73.42;101738.00;4941624;28;20057;-74
2023/01/28 07:26:10;;;;;;;4.55;0.25;;;;;;;-0.06;72.99;101726.97;4942610;28;20530;-73
2023/01/28 07:28:37;;;;;;;7.32;0.82;;;;;;;-0.03;73.46;101728.75;4942787;28;20074;-73
2023/01/28 07:31:05;;;;;;;1.20;0.50;;;;;;;0.00;72.88;101731.47;4938222;28;20043;-73
2023/01/28 07:33:32;;;;;;;1.02;0.30;;;;;;;0.03;73.11;101723.91;4943323;29;20059;-74
2023/01/28 07:35:59;;;;;;;1.23;0.10;;;;;;;0.05;73.21;101718.81;4941658;29;20049;-73
2023/01/28 07:38:26;;;;;;;5.07;0.20;;;;;;;0.08;73.23;101719.78;4941955;28;20057;-74
2023/01/28 07:40:53;;;;;;;0.30;0.20;;;;;;;0.11;72.96;101730.19;4940079;28;20055;-74
2023/01/28 07:43:20;;;;;;;3.22;0.20;;;;;;;0.13;73.12;101731.13;4941806;28;20055;-73
2023/01/28 07:45:47;;;;;;;1.98;0.25;;;;;;;0.15;73.29;101729.50;4940128;29;20044;-74
2023/01/28 07:48:15;;;;;;;1.98;0.30;;;;;;;0.18;73.01;101732.19;4941032;28;20063;-71
2023/01/28 07:50:42;;;;;;;1.45;0.30;;;;;;;0.19;72.96;101718.53;4938988;28;20062;-72
2023/01/28 07:53:11;;;;;;;2.88;0.32;;;;;;;0.24;72.90;101722.97;4946000;29;20090;-72
2023/01/28 07:55:39;;;;;;;1.10;0.20;;;;;;;0.25;72.79;101711.88;4943023;28;20040;-72
2023/01/28 07:58:08;;;;;;;4.28;3.90;;;;;;;0.28;73.02;101705.16;4942842;28;20043;-72
2023/01/28 08:00:36;;;;;;;6.25;0.35;;;;;;;0.30;72.78;101705.22;4945193;29;20504;-72
2023/01/28 08:03:05;;;;;;;3.10;0.28;;;;;;;0.32;73.07;101696.75;4942541;28;20051;-72
2023/01/28 08:05:42;;;;;;;2.42;0.20;;;;;;;0.34;73.46;101687.41;4939695;28;20607;-72
2023/01/28 08:08:09;;;;;;;5.95;0.30;;;;;;;0.37;73.41;101707.19;4945407;28;20500;-72
2023/01/28 08:10:36;;;;;;;4.13;0.80;;;;;;;0.39;72.86;101700.41;4940911;29;20047;-72
2023/01/28 08:13:03;;;;;;;2.15;0.30;;;;;;;0.41;73.25;101691.09;4941146;29;20051;-72
2023/01/28 08:15:30;;;;;;;4.43;0.50;;;;;;;0.43;73.09;101689.44;4944215;29;20748;-72
2023/01/28 08:17:58;;;;;;;0.60;0.30;;;;;;;0.45;73.36;101677.50;4944010;28;20046;-72
2023/01/28 08:20:28;;;;;;;0.65;0.30;;;;;;;0.47;73.40;101670.75;4944182;28;20047;-72
2023/01/28 08:23:05;;;;;;;0.80;0.20;;;;;;;0.49;73.21;101666.53;4941561;29;20126;-73
2023/01/28 08:25:33;;;;;;;4.80;0.50;;;;;;;0.52;73.73;101666.66;4944530;28;20055;-72
2023/01/28 08:27:59;;;;;;;2.78;0.28;;;;;;;0.48;73.23;101664.78;4941392;29;20055;-75
2023/01/28 08:30:26;;;;;;;4.45;0.38;;;;;;;0.56;72.84;101660.78;4942520;28;20065;-73
2023/01/28 08:32:56;;;;;;;5.00;0.22;;;;;;;0.58;73.26;101651.44;4944241;28;20051;-73
2023/01/28 08:35:22;;;;;;;3.75;0.30;;;;;;;0.60;72.86;101643.81;4942533;28;20062;-73
2023/01/28 08:37:49;;;;;;;3.50;0.25;;;;;;;0.61;73.18;101641.28;4939101;28;20051;-73
2023/01/28 08:40:18;;;;;;;3.50;0.30;;;;;;;0.63;73.05;101660.22;4942015;28;20051;-73
2023/01/28 08:42:48;;;;;;;11.18;0.50;;;;;;;0.64;72.91;101646.53;4942216;28;20048;-73
2023/01/28 08:45:15;;;;;;;2.72;0.30;;;;;;;0.66;73.18;101647.47;4943834;28;20051;-75
2023/01/28 08:47:48;;;;;;;4.55;0.68;;;;;;;0.67;72.95;101641.47;4942925;29;20059;-74
2023/01/28 08:50:16;;;;;;;5.13;0.30;;;;;;;0.65;73.11;101632.88;4941379;28;20047;-73
2023/01/28 08:52:43;;;;;;;1.48;0.30;;;;;;;0.71;72.65;101631.31;4942661;29;20519;-73
2023/01/28 08:55:10;;;;;;;3.22;1.08;;;;;;;0.73;72.94;101638.25;4941843;28;20043;-73
2023/01/28 08:57:38;;;;;;;5.07;0.50;;;;;;;0.74;72.92;101639.13;4944621;29;20058;-73
2023/01/28 09:00:09;;;;;;;6.00;0.40;;;;;;;0.75;73.27;101630.59;4939169;28;20043;-73
2023/01/28 09:02:36;;;;;;;5.38;0.70;;;;;;;0.64;72.57;101625.94;4938291;28;20063;-77
2023/01/28 09:05:04;;;;;;;4.53;0.30;;;;;;;0.78;73.46;101649.59;4941177;29;20055;-73
2023/01/28 09:07:31;;;;;;;7.07;0.70;;;;;;;0.79;73.14;101633.31;4940602;28;20048;-73
2023/01/28 09:09:57;;;;;;;5.20;0.30;;;;;;;0.71;72.88;101615.88;4944452;29;20055;-73
2023/01/28 09:12:24;;;;;;;0.82;0.38;;;;;;;0.81;73.19;101615.38;4940343;28;20052;-73
2023/01/28 09:14:53;;;;;;;4.57;0.38;;;;;;;0.83;73.61;101612.06;4940058;28;20047;-73
2023/01/28 09:17:20;;;;;;;3.10;0.20;;;;;;;0.85;72.84;101614.66;4942085;29;20058;-73
2023/01/28 09:19:47;;;;;;;7.72;0.40;;;;;;;0.86;73.14;101608.72;4939483;29;20048;-73
2023/01/28 09:22:14;;;;;;;2.13;0.40;;;;;;;0.87;73.24;101601.03;4944480;29;20051;-73
2023/01/28 09:24:41;;;;;;;3.47;0.57;;;;;;;0.88;73.08;101589.03;4942657;28;20058;-73
2023/01/28 09:27:07;;;;;;;6.60;0.40;;;;;;;0.92;72.93;101597.75;4941672;28;20040;-74
2023/01/28 09:29:36;;;;;;;6.75;0.30;;;;;;;0.94;72.96;101598.66;4939750;28;20058;-73
2023/01/28 09:32:05;;;;;;;4.72;0.40;;;;;;;0.95;73.26;101579.84;4941044;29;20114;-73
2023/01/28 09:34:32;;;;;;;2.45;0.40;;;;;;;0.96;73.15;101577.31;4942788;29;20065;-74
2023/01/28 09:36:59;;;;;;;2.05;0.30;;;;;;;0.97;72.99;101578.19;4942408;28;20436;-74
2023/01/28 09:39:27;;;;;;;4.07;0.47;;;;;;;0.92;72.74;101590.03;4940610;29;20047;-74
2023/01/28 09:42:01;;;;;;;2.50;0.30;;;;;;;1.01;73.72;101585.19;4944235;28;20051;-73
2023/01/28 09:44:43;;;;;;;4.23;1.90;;;;;;;1.02;72.79;101553.50;4943668;28;20407;-73
2023/01/28 09:47:22;;;;;;;3.42;0.93;;;;;;;1.02;72.97;101551.78;4940995;28;20298;-73
2023/01/28 09:49:53;;;;;;;5.97;1.45;;;;;;;1.05;72.84;101546.78;4940282;28;20484;-73
2023/01/28 09:52:23;;;;;;;4.95;0.20;;;;;;;1.07;72.82;101544.22;4935385;28;20051;-74
2023/01/28 09:54:55;;;;;;;4.55;0.22;;;;;;;1.08;72.72;101549.44;4940864;28;20051;-74
2023/01/28 09:57:25;;;;;;;4.93;0.93;;;;;;;1.11;72.94;101543.50;4937538;28;20487;-75
2023/01/28 09:59:52;;;;;;;5.85;1.13;;;;;;;1.13;72.79;101552.16;4936181;28;20039;-73
2023/01/28 10:02:37;;;;;;;5.32;0.22;;;;;;;1.15;72.95;101549.63;4940971;28;20044;-74
2023/01/28 10:05:18;;;;;;;2.47;0.30;;;;;;;1.17;72.47;101541.16;4938672;28;20047;-74
2023/01/28 10:07:56;;;;;;;2.58;0.30;;;;;;;1.18;72.95;101553.19;4941186;29;20067;-75
2023/01/28 10:10:29;;;;;;;8.55;0.70;;;;;;;1.22;72.89;101538.69;4942151;28;20047;-74
2023/01/28 10:13:07;;;;;;;7.65;0.45;;;;;;;1.23;72.53;101531.03;4943396;28;20058;-73
2023/01/28 10:16:04;;;;;;;3.55;0.30;;;;;;;1.26;73.03;101525.13;4939719;28;20055;-74
2023/01/28 10:18:36;;;;;;;6.18;0.30;;;;;;;1.27;73.55;101520.00;4936035;28;20055;-73
2023/01/28 10:21:11;;;;;;;0.80;0.10;;;;;;;1.31;72.52;101528.72;4940832;28;20044;-73
2023/01/28 10:23:48;;;;;;;0.60;0.20;;;;;;;1.32;72.96;101515.00;4939374;29;20055;-73
2023/01/28 10:26:22;;;;;;;2.58;0.22;;;;;;;1.34;72.94;101519.38;4940035;28;20293;-74
2023/01/28 10:28:54;;;;;;;2.77;0.33;;;;;;;1.36;72.76;101509.13;4937641;28;20056;-73
2023/01/28 10:31:23;;;;;;;6.78;0.43;;;;;;;1.38;73.45;101496.31;4941951;28;20300;-74
2023/01/28 10:33:51;;;;;;;6.30;0.30;;;;;;;1.40;72.88;101476.66;4940824;28;20555;-73
2023/01/28 10:36:19;;;;;;;1.35;0.20;;;;;;;1.43;72.87;101476.72;4941774;29;20048;-74
2023/01/28 10:38:46;;;;;;;3.58;0.32;;;;;;;1.44;72.81;101479.34;4935790;28;20732;-74
2023/01/28 10:41:19;;;;;;;6.82;1.42;;;;;;;1.46;72.92;101471.66;4941889;28;20408;-74
2023/01/28 10:43:48;;;;;;;2.65;0.20;;;;;;;1.47;73.13;101479.44;4940998;28;20476;-74
2023/01/28 10:46:19;;;;;;;3.17;0.30;;;;;;;1.50;73.29;101483.78;4937955;28;20070;-74
2023/01/28 10:48:53;;;;;;;2.90;0.40;;;;;;;1.51;72.92;101481.28;4940984;28;20055;-75
2023/01/28 10:51:31;;;;;;;3.72;1.17;;;;;;;1.54;73.43;101491.66;4938653;28;20058;-75
2023/01/28 10:53:58;;;;;;;5.07;0.20;;;;;;;1.56;73.46;101484.84;4941201;28;20063;-74
2023/01/28 10:56:27;;;;;;;1.65;0.40;;;;;;;1.56;72.95;101482.25;4939839;28;20175;-75
2023/01/28 10:58:59;;;;;;;1.00;0.10;;;;;;;1.61;73.56;101481.53;4940067;29;20051;-74
2023/01/28 11:01:38;;;;;;;5.55;0.20;;;;;;;1.62;72.94;101479.00;4941297;28;20044;-75
2023/01/28 11:04:05;;;;;;;2.38;0.35;;;;;;;1.65;73.52;101475.66;4939720;28;20409;-73
2023/01/28 11:06:33;;;;;;;2.80;0.30;;;;;;;1.66;73.36;101482.56;4939936;28;20098;-75
2023/01/28 11:09:00;;;;;;;2.22;0.35;;;;;;;1.68;73.23;101474.06;4937882;28;20052;-74
2023/01/28 11:11:29;;;;;;;5.82;0.30;;;;;;;1.70;73.22;101468.94;4939710;28;20047;-75
2023/01/28 11:13:57;;;;;;;4.55;0.30;;;;;;;1.71;73.28;101462.97;4943061;28;20803;-74
2023/01/28 11:16:25;;;;;;;8.95;0.35;;;;;;;1.72;73.43;101475.00;4941443;28;20498;-75
2023/01/28 11:18:55;;;;;;;1.55;0.20;;;;;;;1.76;73.57;101467.38;4940024;28;20419;-74
2023/01/28 11:21:24;;;;;;;0.80;0.20;;;;;;;1.78;72.77;101463.16;4942651;29;20059;-74
2023/01/28 11:23:56;;;;;;;3.70;0.20;;;;;;;1.81;73.43;101459.81;4937596;28;20420;-73
2023/01/28 11:26:25;;;;;;;8.82;1.95;;;;;;;1.83;73.67;101453.00;4941550;28;20491;-74
2023/01/28 11:28:53;;;;;;;6.13;0.30;;;;;;;1.86;73.04;101455.66;4943798;28;20055;-75
2023/01/28 11:31:23;;;;;;;3.33;0.30;;;;;;;1.88;72.72;101456.59;4947396;29;20043;-80
2023/01/28 11:33:52;;;;;;;2.10;0.60;;;;;;;1.90;73.35;101454.91;4944742;29;20079;-75
2023/01/28 11:36:21;;;;;;;3.13;0.30;;;;;;;1.94;73.63;101455.88;4944086;28;20056;-74
2023/01/28 11:38:54;;;;;;;3.47;0.30;;;;;;;1.88;73.32;101433.41;4944245;28;20047;-74
2023/01/28 11:41:27;;;;;;;1.75;0.30;;;;;;;1.98;73.66;101425.06;4941222;29;20051;-75
2023/01/28 11:43:55;;;;;;;4.03;0.60;;;;;;;1.99;73.34;101434.56;4942122;29;20048;-75
2023/01/28 11:46:43;;;;;;;2.72;0.40;;;;;;;2.03;73.30;101431.22;4942327;28;20064;-74
2023/01/28 11:49:18;;;;;;;6.75;0.25;;;;;;;2.06;73.02;101432.16;4943148;29;20059;-73
2023/01/28 11:51:55;;;;;;;7.03;0.20;;;;;;;2.06;73.44;101429.56;4941087;29;20040;-72
2023/01/28 11:54:36;;;;;;;1.38;0.17;;;;;;;2.11;72.80;101425.41;4944699;28;20374;-71
2023/01/28 11:57:17;;;;;;;2.72;0.20;;;;;;;2.14;72.82;101433.22;4946355;28;20403;-74
2023/01/28 11:59:59;;;;;;;2.47;0.30;;;;;;;2.16;72.97;101422.13;4939791;29;20546;-73
2023/01/28 12:02:44;;;;;;;4.50;0.32;;;;;;;2.17;73.15;101410.13;4943659;29;20050;-74
2023/01/28 12:05:30;;;;;;;3.10;0.33;;;;;;;2.19;72.88;101406.75;4941881;29;20048;-74
2023/01/28 12:08:07;;;;;;;3.53;0.25;;;;;;;2.22;72.84;101398.19;4942346;29;20278;-74